FW6558 Weather Reports


Display with metric or nautical units.
time (UTC)temp
F
wind
direction
speed
MPH
gust
MPH
rain 1hr
in
rain 24hr
in
rain mn
in
humidity
%
barometer
mb
20210515182612 73 101 1.0 2.0 0.00 0.00 0.00 55 1022.5
20210515182112 72 0 2.0 3.0 0.00 0.00 0.00 55 1022.7
20210515181612 72 15 1.0 2.0 0.00 0.00 0.00 54 1022.5
20210515181112 73 42 1.0 1.0 0.00 0.00 0.00 55 1022.8
20210515180612 73 113 1.0 2.0 0.00 0.00 0.00 52 1022.8
20210515180112 72 35 0.0 1.0 0.00 0.00 0.00 57 1022.8
20210515175612 69 46 2.0 5.0 0.00 0.00 0.00 59 1022.7
20210515175112 68 11 3.0 5.0 0.00 0.00 0.00 58 1022.8
20210515174612 69 322 0.0 1.0 0.00 0.00 0.00 60 1022.9
20210515174112 71 322 0.0 2.0 0.00 0.00 0.00 59 1022.8
20210515173612 70 322 1.0 1.0 0.00 0.00 0.00 63 1022.8
20210515173112 67 322 0.0 2.0 0.00 0.00 0.00 63 1023.0
20210515172611 69 322 1.0 2.0 0.00 0.00 0.00 60 1023.2
20210515172112 70 322 1.0 2.0 0.00 0.00 0.00 62 1023.4
20210515171612 70 321 1.0 1.0 0.00 0.00 0.00 60 1023.2
20210515171112 71 322 1.0 2.0 0.00 0.00 0.00 55 1023.2
20210515170612 68 309 1.0 1.0 0.00 0.00 0.00 63 1023.5
20210515170112 70 304 1.0 2.0 0.00 0.00 0.00 57 1023.5
20210515165612 72 93 1.0 3.0 0.00 0.00 0.00 57 1023.5
20210515165111 71 207 2.0 3.0 0.00 0.00 0.00 56 1023.5
20210515164612 71 150 1.0 3.0 0.00 0.00 0.00 56 1023.6
20210515164112 71 23 1.0 3.0 0.00 0.00 0.00 58 1023.8
20210515163612 71 31 1.0 2.0 0.00 0.00 0.00 55 1023.7
20210515163112 68 106 1.0 3.0 0.00 0.00 0.00 64 1023.8
20210515162612 68 32 0.0 1.0 0.00 0.00 0.00 62 1023.8
20210515162112 71 63 2.0 3.0 0.00 0.00 0.00 56 1023.8
20210515161612 72 35 1.0 3.0 0.00 0.00 0.00 55 1023.9
20210515161112 71 102 0.0 2.0 0.00 0.00 0.00 60 1023.9
20210515160611 70 31 1.0 2.0 0.00 0.00 0.00 56 1024.1
20210515160112 70 36 2.0 2.0 0.00 0.00 0.00 57 1024.4
20210515155612 70 40 0.0 1.0 0.00 0.00 0.00 59 1024.2
20210515155112 71 3 2.0 2.0 0.00 0.00 0.00 58 1024.3
20210515154612 70 193 1.0 2.0 0.00 0.00 0.00 56 1024.3
20210515154112 70 96 1.0 2.0 0.00 0.00 0.00 56 1024.3
20210515153611 70 96 1.0 2.0 0.00 0.00 0.00 56 1024.4
20210515153112 69 62 2.0 2.0 0.00 0.00 0.00 60 1024.3
20210515152612 70 61 0.0 1.0 0.00 0.00 0.00 56 1024.1
20210515152112 68 61 1.0 3.0 0.00 0.00 0.00 59 1024.1
20210515151612 69 89 2.0 2.0 0.00 0.00 0.00 55 1024.2
20210515151112 67 67 2.0 3.0 0.00 0.00 0.00 56 1023.9
20210515150612 67 66 2.0 2.0 0.00 0.00 0.00 57 1023.9
20210515150112 67 66 2.0 3.0 0.00 0.00 0.00 57 1024.0
20210515145612 68 67 2.0 3.0 0.00 0.00 0.00 55 1023.8
20210515145112 68 73 1.0 2.0 0.00 0.00 0.00 56 1023.8
20210515144612 69 75 0.0 2.0 0.00 0.00 0.00 57 1023.7
20210515144112 70 74 0.0 2.0 0.00 0.00 0.00 55 1023.5
20210515143612 69 68 0.0 1.0 0.00 0.00 0.00 52 1023.7
20210515143112 68 68 1.0 1.0 0.00 0.00 0.00 56 1023.7
20210515142611 68 68 0.0 0.0 0.00 0.00 0.00 57 1023.5
20210515142111 69 68 0.0 0.0 0.00 0.00 0.00 54 1023.8
20210515141612 67 68 0.0 0.0 0.00 0.00 0.00 65 1024.0
20210515141112 66 68 1.0 1.0 0.00 0.00 0.00 67 1023.9
20210515140612 66 68 0.0 1.0 0.00 0.00 0.00 69 1023.8
20210515140111 66 68 0.0 1.0 0.00 0.00 0.00 61 1023.8
20210515135612 64 68 0.0 0.0 0.00 0.00 0.00 79 1023.7
20210515135112 63 69 0.0 0.0 0.00 0.00 0.00 85 1023.8
20210515134612 64 68 0.0 1.0 0.00 0.00 0.00 81 1023.8
20210515134112 63 68 0.0 1.0 0.00 0.00 0.00 74 1023.7
20210515133611 63 68 0.0 1.0 0.00 0.00 0.00 80 1023.8
20210515133111 63 67 0.0 1.0 0.00 0.00 0.00 83 1024.0
20210515132611 63 67 0.0 0.0 0.00 0.00 0.00 81 1023.9
20210515132111 60 67 0.0 0.0 0.00 0.00 0.00 82 1023.6
20210515131612 59 68 0.0 0.0 0.00 0.00 0.00 87 1023.8
20210515131112 59 67 0.0 0.0 0.00 0.00 0.00 90 1024.1
20210515130612 58 67 0.0 0.0 0.00 0.00 0.00 89 1023.9
20210515130112 57 67 0.0 0.0 0.00 0.00 0.00 92 1023.9
20210515125612 55 67 0.0 0.0 0.00 0.00 0.00 94 1023.9
20210515125111 53 68 0.0 0.0 0.00 0.00 0.00 97 1023.5
20210515124612 53 68 0.0 0.0 0.00 0.00 0.00 98 1023.5
20210515124111 52 68 0.0 0.0 0.00 0.00 0.00 97 1023.5
20210515123612 52 68 0.0 0.0 0.00 0.00 0.00 97 1023.4
20210515123112 51 68 0.0 0.0 0.00 0.00 0.00 98 1023.4
20210515122612 51 68 0.0 0.0 0.00 0.00 0.00 97 1023.6
20210515122112 50 68 0.0 0.0 0.00 0.00 0.00 97 1023.4
20210515121611 50 68 0.0 0.0 0.00 0.00 0.00 97 1023.4
20210515121112 50 68 0.0 0.0 0.00 0.00 0.00 98 1023.4
20210515120612 49 68 0.0 0.0 0.00 0.00 0.00 96 1023.3
20210515120111 49 68 0.0 0.0 0.00 0.00 0.00 96 1023.4
20210515115612 49 69 0.0 0.0 0.00 0.00 0.00 94 1023.5
20210515115112 48 68 0.0 0.0 0.00 0.00 0.00 94 1023.5
20210515114611 48 68 0.0 0.0 0.00 0.00 0.00 94 1023.5
20210515114112 48 68 0.0 0.0 0.00 0.00 0.00 95 1023.4
20210515113612 48 68 0.0 0.0 0.00 0.00 0.00 95 1023.5
20210515113112 48 68 0.0 0.0 0.00 0.00 0.00 94 1023.5
20210515112612 48 68 0.0 0.0 0.00 0.00 0.00 92 1023.5
20210515112111 47 68 0.0 0.0 0.00 0.00 0.00 91 1023.6
20210515111612 47 68 0.0 0.0 0.00 0.00 0.00 90 1023.5
20210515111111 47 68 0.0 0.0 0.00 0.00 0.00 94 1023.3
20210515110612 47 68 0.0 0.0 0.00 0.00 0.00 96 1023.4
20210515110111 47 68 0.0 0.0 0.00 0.00 0.00 95 1023.2
20210515105612 47 68 0.0 0.0 0.00 0.00 0.00 96 1023.4
20210515105112 47 68 0.0 0.0 0.00 0.00 0.00 97 1023.2
20210515104611 47 68 0.0 0.0 0.00 0.00 0.00 97 1023.2
20210515104112 47 68 0.0 0.0 0.00 0.00 0.00 92 1023.2
20210515103611 47 68 0.0 0.0 0.00 0.00 0.00 95 1023.2
20210515103111 47 68 0.0 0.0 0.00 0.00 0.00 95 1023.1
20210515102612 47 68 0.0 0.0 0.00 0.00 0.00 96 1023.0
20210515102112 47 68 0.0 0.0 0.00 0.00 0.00 94 1023.1
20210515101611 47 68 0.0 0.0 0.00 0.00 0.00 96 1022.9
20210515101112 47 68 0.0 0.0 0.00 0.00 0.00 96 1022.8
20210515100611 47 69 0.0 0.0 0.00 0.00 0.00 93 1022.7
20210515100111 47 68 0.0 0.0 0.00 0.00 0.00 96 1022.5
20210515095611 47 68 0.0 0.0 0.00 0.00 0.00 96 1022.5
20210515095111 47 68 0.0 0.0 0.00 0.00 0.00 96 1022.3
20210515094612 47 68 0.0 0.0 0.00 0.00 0.00 96 1022.2
20210515094111 47 69 0.0 0.0 0.00 0.00 0.00 95 1022.3
20210515093612 47 68 0.0 0.0 0.00 0.00 0.00 96 1022.4
20210515093112 47 68 0.0 0.0 0.00 0.00 0.00 96 1022.1
20210515092611 47 68 0.0 0.0 0.00 0.00 0.00 96 1022.1
20210515092111 47 68 0.0 0.0 0.00 0.00 0.00 96 1021.9
20210515091612 47 68 0.0 0.0 0.00 0.00 0.00 96 1022.3
20210515091112 47 68 0.0 0.0 0.00 0.00 0.00 96 1021.8
20210515090611 47 68 0.0 0.0 0.00 0.00 0.00 96 1021.9
20210515090112 47 69 0.0 0.0 0.00 0.00 0.00 96 1021.8
20210515085612 47 68 0.0 0.0 0.00 0.00 0.00 97 1022.0
20210515085112 47 68 0.0 0.0 0.00 0.00 0.00 97 1021.8
20210515084611 47 68 0.0 0.0 0.00 0.00 0.00 97 1021.7
20210515084111 47 69 0.0 0.0 0.00 0.00 0.00 97 1021.8
20210515083612 47 68 0.0 0.0 0.00 0.00 0.00 97 1021.7
20210515083111 47 69 0.0 0.0 0.00 0.00 0.00 97 1022.1
20210515082612 46 68 0.0 0.0 0.00 0.00 0.00 97 1021.9
20210515082112 46 68 0.0 0.0 0.00 0.00 0.00 97 1021.7
20210515081611 47 69 0.0 0.0 0.00 0.00 0.00 97 1021.8
20210515081111 47 69 0.0 0.0 0.00 0.00 0.00 95 1021.5
20210515080612 47 69 0.0 0.0 0.00 0.00 0.00 96 1021.5
20210515080111 47 69 0.0 0.0 0.00 0.00 0.00 96 1021.5
20210515075612 47 68 0.0 0.0 0.00 0.00 0.00 97 1021.5
20210515075111 47 69 0.0 0.0 0.00 0.00 0.00 97 1021.6
20210515074612 46 69 0.0 0.0 0.00 0.00 0.00 96 1021.8
20210515074111 46 69 0.0 0.0 0.00 0.00 0.00 96 1021.7
20210515073612 47 68 0.0 0.0 0.00 0.00 0.00 97 1021.7
20210515073112 47 69 0.0 0.0 0.00 0.00 0.00 96 1021.7
20210515072611 46 69 0.0 0.0 0.00 0.00 0.00 96 1021.6
20210515072111 46 69 0.0 0.0 0.00 0.00 0.00 97 1021.8
20210515071611 46 69 0.0 0.0 0.00 0.00 0.00 96 1021.9
20210515071111 46 69 0.0 0.0 0.00 0.00 0.00 96 1021.7
20210515070612 46 69 0.0 0.0 0.00 0.00 0.00 96 1021.7
20210515070111 46 69 0.0 0.0 0.00 0.00 0.00 96 1021.8
20210515065611 46 69 0.0 0.0 0.00 0.00 0.00 97 1021.7
20210515065111 46 68 0.0 0.0 0.00 0.00 0.00 96 1021.9
20210515064611 46 69 0.0 0.0 0.00 0.00 0.00 96 1021.8
20210515064111 47 69 0.0 0.0 0.00 0.00 0.00 96 1021.9
20210515063612 47 69 0.0 0.0 0.00 0.00 0.00 96 1022.0
20210515063112 47 69 0.0 0.0 0.00 0.00 0.00 96 1022.1
20210515062612 47 69 0.0 0.0 0.00 0.00 0.00 96 1022.0
20210515062112 47 69 0.0 0.0 0.00 0.00 0.00 95 1022.2
20210515061611 47 69 0.0 0.0 0.00 0.00 0.00 95 1022.1
20210515061112 47 68 0.0 0.0 0.00 0.00 0.00 95 1022.1
20210515060611 47 69 0.0 0.0 0.00 0.00 0.00 95 1022.3
20210515060111 47 68 0.0 0.0 0.00 0.00 0.00 95 1022.1
20210515055612 47 68 0.0 0.0 0.00 0.00 0.00 95 1021.9
20210515055112 47 69 0.0 0.0 0.00 0.00 0.00 95 1022.3
20210515054611 47 68 0.0 0.0 0.00 0.00 0.00 95 1022.3
20210515054111 47 69 0.0 0.0 0.00 0.00 0.00 95 1022.4
20210515053611 47 69 0.0 0.0 0.00 0.00 0.00 94 1022.6
20210515053111 47 69 0.0 0.0 0.00 0.00 0.00 94 1022.5
20210515052611 47 69 0.0 0.0 0.00 0.00 0.00 94 1022.3
20210515052111 47 68 0.0 0.0 0.00 0.00 0.00 93 1022.3
20210515051611 47 69 0.0 0.0 0.00 0.00 0.00 93 1022.4
20210515051111 47 69 0.0 0.0 0.00 0.00 0.00 93 1022.4
20210515050611 47 68 0.0 0.0 0.00 0.00 0.00 93 1022.3
20210515050111 47 69 0.0 0.0 0.00 0.00 0.00 92 1022.1
20210515045612 48 68 0.0 0.0 0.00 0.00 0.00 91 1022.4
20210515045112 48 68 0.0 0.0 0.00 0.00 0.00 92 1022.4
20210515044611 48 68 0.0 0.0 0.00 0.00 0.00 92 1022.3
20210515044111 48 68 0.0 0.0 0.00 0.00 0.00 92 1022.2
20210515043612 48 68 0.0 0.0 0.00 0.00 0.00 91 1022.3
20210515043112 48 68 0.0 0.0 0.00 0.00 0.00 91 1022.2
20210515042611 48 68 0.0 0.0 0.00 0.00 0.00 92 1022.2
20210515042111 48 68 0.0 0.0 0.00 0.00 0.00 90 1022.2
20210515041612 48 68 0.0 0.0 0.00 0.00 0.00 90 1022.6
20210515041112 48 68 0.0 0.0 0.00 0.00 0.00 90 1022.4
20210515040611 48 68 0.0 0.0 0.00 0.00 0.00 89 1022.4
20210515040112 48 68 0.0 0.0 0.00 0.00 0.00 90 1022.5
20210515035611 49 68 0.0 0.0 0.00 0.00 0.00 89 1022.3
20210515035112 49 69 0.0 0.0 0.00 0.00 0.00 88 1022.5
20210515034612 48 69 0.0 0.0 0.00 0.00 0.00 88 1022.7
20210515034111 48 68 0.0 0.0 0.00 0.00 0.00 89 1022.6
20210515033612 49 69 0.0 0.0 0.00 0.00 0.00 90 1022.7
20210515033111 49 68 0.0 0.0 0.00 0.00 0.00 88 1022.6
20210515032612 49 68 0.0 0.0 0.00 0.00 0.00 89 1022.6
20210515032111 49 68 0.0 0.0 0.00 0.00 0.00 89 1022.6
20210515031611 49 68 0.0 0.0 0.00 0.00 0.00 89 1022.7
20210515031111 49 68 0.0 0.0 0.00 0.00 0.00 90 1022.7
20210515030612 49 68 0.0 0.0 0.00 0.00 0.00 89 1022.5
20210515030111 49 68 0.0 0.0 0.00 0.00 0.00 88 1022.6
20210515025611 49 68 0.0 0.0 0.00 0.00 0.00 88 1022.7
20210515025111 49 68 0.0 0.0 0.00 0.00 0.00 90 1022.9
20210515024612 49 69 0.0 0.0 0.00 0.00 0.00 90 1022.7
20210515024112 49 69 0.0 0.0 0.00 0.00 0.00 90 1022.6
20210515023612 49 69 0.0 0.0 0.00 0.00 0.00 91 1022.6
20210515023111 49 69 0.0 0.0 0.00 0.00 0.00 89 1022.4
20210515022612 50 69 0.0 0.0 0.00 0.00 0.00 90 1022.6
20210515022112 50 69 0.0 0.0 0.00 0.00 0.00 90 1022.4
20210515021612 50 69 0.0 0.0 0.00 0.00 0.00 89 1022.3
20210515021111 50 69 0.0 0.0 0.00 0.00 0.00 89 1022.3
20210515020612 51 69 0.0 0.0 0.00 0.00 0.00 89 1022.2
20210515020112 51 69 0.0 0.0 0.00 0.00 0.00 88 1022.1
20210515015612 51 69 0.0 0.0 0.00 0.00 0.00 85 1022.1
20210515015111 51 69 0.0 0.0 0.00 0.00 0.00 85 1022.2
20210515014611 51 69 0.0 0.0 0.00 0.00 0.00 85 1022.2
20210515014111 51 69 0.0 0.0 0.00 0.00 0.00 87 1021.8
20210515013611 52 69 0.0 0.0 0.00 0.00 0.00 86 1021.9
20210515013111 52 68 0.0 0.0 0.00 0.00 0.00 86 1022.0
20210515012611 52 69 0.0 0.0 0.00 0.00 0.00 87 1021.8
20210515012111 53 69 0.0 0.0 0.00 0.00 0.00 87 1021.7
20210515011611 53 69 0.0 0.0 0.00 0.00 0.00 88 1021.7
20210515011111 54 69 0.0 0.0 0.00 0.00 0.00 90 1021.8
20210515010611 54 69 0.0 0.0 0.00 0.00 0.00 86 1021.7
20210515010111 55 69 0.0 0.0 0.00 0.00 0.00 86 1021.7
20210515005611 55 68 0.0 0.0 0.00 0.00 0.00 87 1021.8
20210515005111 56 68 0.0 0.0 0.00 0.00 0.00 85 1021.5
20210515004611 57 68 0.0 0.0 0.00 0.00 0.00 83 1021.7
20210515004112 58 68 0.0 0.0 0.00 0.00 0.00 80 1021.8
20210515003612 58 68 0.0 0.0 0.00 0.00 0.00 78 1021.7
20210515003111 59 68 0.0 0.0 0.00 0.00 0.00 74 1021.6
20210515002611 60 68 0.0 0.0 0.00 0.00 0.00 73 1021.6
20210515002111 60 68 0.0 0.0 0.00 0.00 0.00 72 1021.6
20210515001611 61 68 0.0 0.0 0.00 0.00 0.00 73 1021.6
20210515001112 61 68 0.0 0.0 0.00 0.00 0.00 78 1021.6
20210515000611 62 68 0.0 0.0 0.00 0.00 0.00 76 1021.5
20210515000112 62 68 0.0 0.0 0.00 0.00 0.00 69 1021.6
20210514235612 63 68 0.0 0.0 0.00 0.00 0.00 69 1021.4
20210514235111 63 68 0.0 0.0 0.00 0.00 0.00 61 1021.5
20210514234612 63 68 0.0 0.0 0.00 0.00 0.00 62 1021.5
20210514234111 63 68 0.0 1.0 0.00 0.00 0.00 59 1021.4
20210514233611 62 68 0.0 0.0 0.00 0.00 0.00 64 1021.3
20210514233111 62 68 0.0 1.0 0.00 0.00 0.00 73 1021.4
20210514232611 62 68 0.0 1.0 0.00 0.00 0.00 68 1021.3
20210514232111 62 68 0.0 0.0 0.00 0.00 0.00 71 1021.1
20210514231611 63 68 0.0 0.0 0.00 0.00 0.00 79 1021.2
20210514231112 62 68 0.0 0.0 0.00 0.00 0.00 70 1021.3
20210514230611 62 68 0.0 0.0 0.00 0.00 0.00 78 1021.1
20210514230111 62 68 0.0 0.0 0.00 0.00 0.00 78 1021.3
20210514225611 62 68 0.0 0.0 0.00 0.00 0.00 75 1021.3
20210514225111 62 68 0.0 0.0 0.00 0.00 0.00 73 1021.2
20210514224611 62 68 0.0 0.0 0.00 0.00 0.00 76 1021.3
20210514224111 61 68 0.0 0.0 0.00 0.00 0.00 74 1021.3
20210514223611 62 68 0.0 0.0 0.00 0.00 0.00 77 1021.3
20210514223111 62 68 0.0 0.0 0.00 0.00 0.00 75 1021.5
20210514222611 62 68 0.0 0.0 0.00 0.00 0.00 76 1021.5
20210514222111 63 68 0.0 0.0 0.00 0.00 0.00 68 1021.4
20210514221611 63 68 0.0 0.0 0.00 0.00 0.00 69 1021.4
20210514221111 63 68 0.0 0.0 0.00 0.00 0.00 67 1021.5
20210514220611 64 68 0.0 0.0 0.00 0.00 0.00 64 1021.6
20210514220111 64 68 0.0 0.0 0.00 0.00 0.00 66 1021.4
20210514215611 65 68 0.0 0.0 0.00 0.00 0.00 61 1021.5
20210514215111 65 68 0.0 0.0 0.00 0.00 0.00 60 1021.5
20210514214611 65 68 0.0 0.0 0.00 0.00 0.00 57 1021.4
20210514214111 66 68 0.0 0.0 0.00 0.00 0.00 54 1021.4
20210514213611 66 68 0.0 2.0 0.00 0.00 0.00 60 1021.5
20210514213111 68 68 0.0 2.0 0.00 0.00 0.00 54 1021.7
20210514212612 67 68 2.0 2.0 0.00 0.00 0.00 51 1021.6
20210514212112 67 69 1.0 1.0 0.00 0.00 0.00 55 1021.6
20210514211611 68 69 0.0 1.0 0.00 0.00 0.00 56 1021.8
20210514211111 68 69 1.0 1.0 0.00 0.00 0.00 55 1021.7
20210514210611 68 104 1.0 2.0 0.00 0.00 0.00 56 1021.8
20210514210112 67 54 1.0 2.0 0.00 0.00 0.00 52 1021.8
20210514205611 67 97 1.0 3.0 0.00 0.00 0.00 52 1021.7
20210514205111 67 74 0.0 1.0 0.00 0.00 0.00 52 1021.9
20210514204611 66 188 1.0 3.0 0.00 0.00 0.00 55 1022.2
20210514204111 66 149 1.0 3.0 0.00 0.00 0.00 54 1022.0
20210514203611 67 131 0.0 3.0 0.00 0.00 0.00 54 1022.1
20210514203111 66 118 2.0 3.0 0.00 0.00 0.00 55 1021.8
20210514202611 66 200 1.0 1.0 0.00 0.00 0.00 58 1022.2
20210514202111 67 100 1.0 2.0 0.00 0.00 0.00 58 1022.0
20210514201611 68 322 0.0 1.0 0.00 0.00 0.00 54 1022.0
20210514201111 67 321 0.0 1.0 0.00 0.00 0.00 55 1022.1
20210514200611 67 60 0.0 2.0 0.00 0.00 0.00 54 1022.3
20210514200111 68 52 0.0 1.0 0.00 0.00 0.00 59 1022.2
20210514195610 68 38 0.0 1.0 0.00 0.00 0.00 59 1022.2
20210514195111 67 120 1.0 2.0 0.00 0.00 0.00 59 1022.4
20210514194611 67 127 1.0 2.0 0.00 0.00 0.00 62 1022.5
20210514194111 65 111 0.0 0.0 0.00 0.00 0.00 72 1022.5
20210514193611 64 119 0.0 0.0 0.00 0.00 0.00 71 1022.5
20210514193111 63 119 0.0 0.0 0.00 0.00 0.00 66 1022.4
20210514192610 64 119 0.0 0.0 0.00 0.00 0.00 65 1022.8
20210514192111 63 119 0.0 1.0 0.00 0.00 0.00 60 1022.8
20210514191611 64 119 0.0 1.0 0.00 0.00 0.00 67 1022.8
20210514191111 65 119 0.0 0.0 0.00 0.00 0.00 63 1022.8
20210514190611 64 119 0.0 0.0 0.00 0.00 0.00 68 1022.8
20210514190111 64 118 1.0 1.0 0.00 0.00 0.00 59 1022.8
20210514185611 65 120 0.0 1.0 0.00 0.00 0.00 59 1023.0
20210514185111 65 120 0.0 0.0 0.00 0.00 0.00 58 1022.7
20210514184610 64 120 0.0 1.0 0.00 0.00 0.00 56 1022.8
20210514184111 64 120 1.0 1.0 0.00 0.00 0.00 63 1022.7
20210514183611 65 120 0.0 1.0 0.00 0.00 0.00 62 1022.8
20210514183111 66 112 1.0 2.0 0.00 0.00 0.00 61 1022.4